EGPA

Kirkwall Airport

Orkney Islands, United Kingdom
METAR EGPA 190120Z AUTO 17014KT 9999 NCD 08/06 Q0993
Observed Flight Rules
Dec-19 @ 01:20 UTC (41 minutes ago) Visual Flight Rules
Wind Visibility Clouds
170° at 14 knots 10,000+ meters
  • Clear skies
Temperatures Readings
Current 8°C / 46°F
Dewpoint 6°C / 43°F
Humidity 87%
Altimeter 29.32" Hg
Pressure 993 hPa
Elevation 21
METAR EGPA 190120Z AUTO 17014KT 9999 NCD 08/06 Q0993
Observed Flight Rules
Dec-19 @ 01:20 UTC
(41 minutes ago)
VFR
Wind Visibility
170° at 14 knots 10,000+ meters
Clouds
  • Clear skies
Temperature Dewpoint
8°C / 46°F 6°C / 43°F
Humidity Altimeter Pressure
87% 29.32" Hg 993 hPa